sensor_id;sensor_type;location;lat;lon;timestamp;temperature;humidity
71436;SHT31;59251;51.326;12.370;2023-06-26T00:01:04;19.51;86.47
71436;SHT31;59251;51.326;12.370;2023-06-26T00:03:32;19.66;85.81
71436;SHT31;59251;51.326;12.370;2023-06-26T00:05:59;19.50;86.32
71436;SHT31;59251;51.326;12.370;2023-06-26T00:08:26;19.46;86.17
71436;SHT31;59251;51.326;12.370;2023-06-26T00:10:53;19.42;85.51
71436;SHT31;59251;51.326;12.370;2023-06-26T00:13:20;19.39;84.84
71436;SHT31;59251;51.326;12.370;2023-06-26T00:15:48;19.43;84.70
71436;SHT31;59251;51.326;12.370;2023-06-26T00:18:15;19.32;84.64
71436;SHT31;59251;51.326;12.370;2023-06-26T00:20:41;19.43;85.13
71436;SHT31;59251;51.326;12.370;2023-06-26T00:23:08;19.33;85.29
71436;SHT31;59251;51.326;12.370;2023-06-26T00:25:35;19.27;85.91
71436;SHT31;59251;51.326;12.370;2023-06-26T00:28:02;19.30;86.09
71436;SHT31;59251;51.326;12.370;2023-06-26T00:30:29;19.26;86.42
71436;SHT31;59251;51.326;12.370;2023-06-26T00:32:58;19.13;86.24
71436;SHT31;59251;51.326;12.370;2023-06-26T00:35:24;19.13;85.91
71436;SHT31;59251;51.326;12.370;2023-06-26T00:37:51;19.12;86.15
71436;SHT31;59251;51.326;12.370;2023-06-26T00:40:18;19.20;86.28
71436;SHT31;59251;51.326;12.370;2023-06-26T00:42:44;19.15;88.05
71436;SHT31;59251;51.326;12.370;2023-06-26T00:45:13;19.12;87.75
71436;SHT31;59251;51.326;12.370;2023-06-26T00:47:40;19.05;86.95
71436;SHT31;59251;51.326;12.370;2023-06-26T00:50:09;19.02;88.97
71436;SHT31;59251;51.326;12.370;2023-06-26T00:52:36;19.13;87.24
71436;SHT31;59251;51.326;12.370;2023-06-26T00:55:04;19.08;86.15
71436;SHT31;59251;51.326;12.370;2023-06-26T00:57:31;19.20;86.28
71436;SHT31;59251;51.326;12.370;2023-06-26T00:59:59;19.09;86.61
71436;SHT31;59251;51.326;12.370;2023-06-26T01:02:29;19.15;85.68
71436;SHT31;59251;51.326;12.370;2023-06-26T01:04:59;19.30;85.64
71436;SHT31;59251;51.326;12.370;2023-06-26T01:07:28;19.33;85.92
71436;SHT31;59251;51.326;12.370;2023-06-26T01:09:58;19.40;85.40
71436;SHT31;59251;51.326;12.370;2023-06-26T01:12:25;19.49;83.43
71436;SHT31;59251;51.326;12.370;2023-06-26T01:14:52;19.61;82.98
71436;SHT31;59251;51.326;12.370;2023-06-26T01:17:19;19.56;82.82
71436;SHT31;59251;51.326;12.370;2023-06-26T01:19:46;19.54;83.22
71436;SHT31;59251;51.326;12.370;2023-06-26T01:22:34;19.56;82.88
71436;SHT31;59251;51.326;12.370;2023-06-26T01:25:16;19.69;82.52
71436;SHT31;59251;51.326;12.370;2023-06-26T01:27:47;19.59;83.00
71436;SHT31;59251;51.326;12.370;2023-06-26T01:30:16;19.56;82.83
71436;SHT31;59251;51.326;12.370;2023-06-26T01:32:43;19.50;83.22
71436;SHT31;59251;51.326;12.370;2023-06-26T01:35:11;19.45;83.20
71436;SHT31;59251;51.326;12.370;2023-06-26T01:37:38;19.36;83.60
71436;SHT31;59251;51.326;12.370;2023-06-26T01:40:06;19.30;83.83
71436;SHT31;59251;51.326;12.370;2023-06-26T01:42:33;19.29;83.80
71436;SHT31;59251;51.326;12.370;2023-06-26T01:45:05;19.27;83.85
71436;SHT31;59251;51.326;12.370;2023-06-26T01:47:36;19.20;84.43
71436;SHT31;59251;51.326;12.370;2023-06-26T01:50:06;19.12;85.14
71436;SHT31;59251;51.326;12.370;2023-06-26T01:52:42;19.06;85.29
71436;SHT31;59251;51.326;12.370;2023-06-26T01:55:21;19.18;84.50
71436;SHT31;59251;51.326;12.370;2023-06-26T01:57:48;19.13;84.26
71436;SHT31;59251;51.326;12.370;2023-06-26T02:00:19;19.09;84.58
71436;SHT31;59251;51.326;12.370;2023-06-26T02:02:47;19.08;85.29
71436;SHT31;59251;51.326;12.370;2023-06-26T02:05:14;19.15;84.22
71436;SHT31;59251;51.326;12.370;2023-06-26T02:07:41;19.20;83.49
71436;SHT31;59251;51.326;12.370;2023-06-26T02:10:09;19.15;83.69
71436;SHT31;59251;51.326;12.370;2023-06-26T02:12:37;19.32;84.20
71436;SHT31;59251;51.326;12.370;2023-06-26T02:15:05;19.24;83.74
71436;SHT31;59251;51.326;12.370;2023-06-26T02:17:34;19.09;85.20
71436;SHT31;59251;51.326;12.370;2023-06-26T02:20:00;19.24;84.98
71436;SHT31;59251;51.326;12.370;2023-06-26T02:22:27;19.18;84.67
71436;SHT31;59251;51.326;12.370;2023-06-26T02:24:54;19.18;83.97
71436;SHT31;59251;51.326;12.370;2023-06-26T02:27:21;19.18;85.57
71436;SHT31;59251;51.326;12.370;2023-06-26T02:29:47;19.05;84.75
71436;SHT31;59251;51.326;12.370;2023-06-26T02:32:14;19.15;83.99
71436;SHT31;59251;51.326;12.370;2023-06-26T02:34:42;19.08;84.30
71436;SHT31;59251;51.326;12.370;2023-06-26T02:37:09;19.13;84.44
71436;SHT31;59251;51.326;12.370;2023-06-26T02:39:35;19.01;85.64
71436;SHT31;59251;51.326;12.370;2023-06-26T02:42:03;18.83;88.22
71436;SHT31;59251;51.326;12.370;2023-06-26T02:44:30;18.68;88.48
71436;SHT31;59251;51.326;12.370;2023-06-26T02:46:56;18.44;90.23
71436;SHT31;59251;51.326;12.370;2023-06-26T02:49:23;18.36;90.60
71436;SHT31;59251;51.326;12.370;2023-06-26T02:51:51;18.33;89.49
71436;SHT31;59251;51.326;12.370;2023-06-26T02:54:23;18.40;88.97
71436;SHT31;59251;51.326;12.370;2023-06-26T02:56:53;18.36;90.28
71436;SHT31;59251;51.326;12.370;2023-06-26T02:59:25;18.27;90.36
71436;SHT31;59251;51.326;12.370;2023-06-26T03:01:53;18.23;89.71
71436;SHT31;59251;51.326;12.370;2023-06-26T03:04:25;18.40;88.67
71436;SHT31;59251;51.326;12.370;2023-06-26T03:06:53;18.57;87.22
71436;SHT31;59251;51.326;12.370;2023-06-26T03:09:20;18.67;86.66
71436;SHT31;59251;51.326;12.370;2023-06-26T03:11:48;18.72;86.92
71436;SHT31;59251;51.326;12.370;2023-06-26T03:14:15;18.76;86.14
71436;SHT31;59251;51.326;12.370;2023-06-26T03:16:41;18.83;85.98
71436;SHT31;59251;51.326;12.370;2023-06-26T03:19:09;18.78;86.30
71436;SHT31;59251;51.326;12.370;2023-06-26T03:21:57;18.89;85.87
71436;SHT31;59251;51.326;12.370;2023-06-26T03:24:23;18.84;85.84
71436;SHT31;59251;51.326;12.370;2023-06-26T03:26:50;18.89;85.71
71436;SHT31;59251;51.326;12.370;2023-06-26T03:29:17;18.92;85.53
71436;SHT31;59251;51.326;12.370;2023-06-26T03:31:44;18.87;85.74
71436;SHT31;59251;51.326;12.370;2023-06-26T03:34:10;18.88;85.68
71436;SHT31;59251;51.326;12.370;2023-06-26T03:36:37;18.98;85.45
71436;SHT31;59251;51.326;12.370;2023-06-26T03:39:05;19.01;85.17
71436;SHT31;59251;51.326;12.370;2023-06-26T03:41:32;19.12;84.94
71436;SHT31;59251;51.326;12.370;2023-06-26T03:43:58;19.15;84.87
71436;SHT31;59251;51.326;12.370;2023-06-26T03:46:31;19.09;85.06
71436;SHT31;59251;51.326;12.370;2023-06-26T03:48:58;19.06;85.20
71436;SHT31;59251;51.326;12.370;2023-06-26T03:51:24;19.15;84.99
71436;SHT31;59251;51.326;12.370;2023-06-26T03:53:51;19.15;85.07
71436;SHT31;59251;51.326;12.370;2023-06-26T03:56:19;19.15;85.30
71436;SHT31;59251;51.326;12.370;2023-06-26T03:58:47;19.27;85.10
71436;SHT31;59251;51.326;12.370;2023-06-26T04:01:14;19.26;85.20
71436;SHT31;59251;51.326;12.370;2023-06-26T04:03:42;19.26;85.13
71436;SHT31;59251;51.326;12.370;2023-06-26T04:06:10;19.33;84.83
71436;SHT31;59251;51.326;12.370;2023-06-26T04:08:37;19.43;84.48
71436;SHT31;59251;51.326;12.370;2023-06-26T04:11:05;19.51;84.16
71436;SHT31;59251;51.326;12.370;2023-06-26T04:13:33;20.08;82.51
71436;SHT31;59251;51.326;12.370;2023-06-26T04:16:00;20.08;82.31
71436;SHT31;59251;51.326;12.370;2023-06-26T04:18:26;20.14;81.87
71436;SHT31;59251;51.326;12.370;2023-06-26T04:21:08;20.14;82.05
71436;SHT31;59251;51.326;12.370;2023-06-26T04:23:35;19.98;82.53
71436;SHT31;59251;51.326;12.370;2023-06-26T04:26:02;20.25;82.00
71436;SHT31;59251;51.326;12.370;2023-06-26T04:28:30;20.17;82.02
71436;SHT31;59251;51.326;12.370;2023-06-26T04:30:58;20.40;81.37
71436;SHT31;59251;51.326;12.370;2023-06-26T04:33:25;20.55;80.91
71436;SHT31;59251;51.326;12.370;2023-06-26T04:35:52;20.95;79.66
71436;SHT31;59251;51.326;12.370;2023-06-26T04:38:19;21.00;79.26
71436;SHT31;59251;51.326;12.370;2023-06-26T04:40:46;20.98;79.27
71436;SHT31;59251;51.326;12.370;2023-06-26T04:43:13;21.08;79.18
71436;SHT31;59251;51.326;12.370;2023-06-26T04:45:40;21.51;77.84
71436;SHT31;59251;51.326;12.370;2023-06-26T04:48:08;21.73;77.07
71436;SHT31;59251;51.326;12.370;2023-06-26T04:50:35;21.72;76.94
71436;SHT31;59251;51.326;12.370;2023-06-26T04:53:02;21.46;77.21
71436;SHT31;59251;51.326;12.370;2023-06-26T04:55:28;21.30;77.67
71436;SHT31;59251;51.326;12.370;2023-06-26T04:57:55;21.15;78.14
71436;SHT31;59251;51.326;12.370;2023-06-26T05:00:22;21.10;78.20
71436;SHT31;59251;51.326;12.370;2023-06-26T05:02:50;21.28;77.92
71436;SHT31;59251;51.326;12.370;2023-06-26T05:05:26;21.41;77.39
71436;SHT31;59251;51.326;12.370;2023-06-26T05:07:53;21.62;76.84
71436;SHT31;59251;51.326;12.370;2023-06-26T05:10:20;21.93;76.17
71436;SHT31;59251;51.326;12.370;2023-06-26T05:12:46;21.96;75.91
71436;SHT31;59251;51.326;12.370;2023-06-26T05:15:13;22.01;75.61
71436;SHT31;59251;51.326;12.370;2023-06-26T05:17:40;22.14;75.20
71436;SHT31;59251;51.326;12.370;2023-06-26T05:20:08;22.04;75.41
71436;SHT31;59251;51.326;12.370;2023-06-26T05:22:37;22.22;74.97
71436;SHT31;59251;51.326;12.370;2023-06-26T05:25:05;22.16;75.00
71436;SHT31;59251;51.326;12.370;2023-06-26T05:27:34;22.45;74.57
71436;SHT31;59251;51.326;12.370;2023-06-26T05:30:01;22.54;74.00
71436;SHT31;59251;51.326;12.370;2023-06-26T05:32:29;22.69;73.91
71436;SHT31;59251;51.326;12.370;2023-06-26T05:34:57;22.79;73.23
71436;SHT31;59251;51.326;12.370;2023-06-26T05:37:26;22.84;73.04
71436;SHT31;59251;51.326;12.370;2023-06-26T05:39:56;22.88;72.87
71436;SHT31;59251;51.326;12.370;2023-06-26T05:42:23;22.99;72.87
71436;SHT31;59251;51.326;12.370;2023-06-26T05:44:50;22.57;73.16
71436;SHT31;59251;51.326;12.370;2023-06-26T05:47:17;22.82;72.71
71436;SHT31;59251;51.326;12.370;2023-06-26T05:49:43;22.96;72.00
71436;SHT31;59251;51.326;12.370;2023-06-26T05:52:11;22.65;72.60
71436;SHT31;59251;51.326;12.370;2023-06-26T05:54:38;22.71;72.51
71436;SHT31;59251;51.326;12.370;2023-06-26T05:57:07;22.45;73.04
71436;SHT31;59251;51.326;12.370;2023-06-26T05:59:36;22.62;72.88
71436;SHT31;59251;51.326;12.370;2023-06-26T06:02:06;22.57;72.56
71436;SHT31;59251;51.326;12.370;2023-06-26T06:04:33;22.81;72.51
71436;SHT31;59251;51.326;12.370;2023-06-26T06:07:00;22.89;72.26
71436;SHT31;59251;51.326;12.370;2023-06-26T06:09:27;22.73;72.75
71436;SHT31;59251;51.326;12.370;2023-06-26T06:11:53;22.81;72.67
71436;SHT31;59251;51.326;12.370;2023-06-26T06:14:21;22.92;72.59
71436;SHT31;59251;51.326;12.370;2023-06-26T06:16:48;23.13;72.14
71436;SHT31;59251;51.326;12.370;2023-06-26T06:19:15;23.12;71.73
71436;SHT31;59251;51.326;12.370;2023-06-26T06:21:41;23.31;70.89
71436;SHT31;59251;51.326;12.370;2023-06-26T06:24:08;23.33;70.08
71436;SHT31;59251;51.326;12.370;2023-06-26T06:26:35;23.30;70.56
71436;SHT31;59251;51.326;12.370;2023-06-26T06:29:02;23.40;70.45
71436;SHT31;59251;51.326;12.370;2023-06-26T06:31:30;23.33;70.36
71436;SHT31;59251;51.326;12.370;2023-06-26T06:33:56;23.58;69.81
71436;SHT31;59251;51.326;12.370;2023-06-26T06:36:23;23.61;69.69
71436;SHT31;59251;51.326;12.370;2023-06-26T06:38:50;23.72;68.96
71436;SHT31;59251;51.326;12.370;2023-06-26T06:41:16;23.71;68.72
71436;SHT31;59251;51.326;12.370;2023-06-26T06:43:43;23.78;68.51
71436;SHT31;59251;51.326;12.370;2023-06-26T06:46:10;23.75;68.63
71436;SHT31;59251;51.326;12.370;2023-06-26T06:48:38;23.72;68.82
71436;SHT31;59251;51.326;12.370;2023-06-26T06:51:04;23.88;68.62
71436;SHT31;59251;51.326;12.370;2023-06-26T06:53:31;23.75;68.64
71436;SHT31;59251;51.326;12.370;2023-06-26T06:55:58;24.01;68.29
71436;SHT31;59251;51.326;12.370;2023-06-26T06:58:25;24.10;68.43
71436;SHT31;59251;51.326;12.370;2023-06-26T07:00:51;24.20;68.18
71436;SHT31;59251;51.326;12.370;2023-06-26T07:03:18;24.20;68.44
71436;SHT31;59251;51.326;12.370;2023-06-26T07:05:48;24.37;67.88
71436;SHT31;59251;51.326;12.370;2023-06-26T07:08:14;24.40;67.83
71436;SHT31;59251;51.326;12.370;2023-06-26T07:10:41;24.36;67.61
71436;SHT31;59251;51.326;12.370;2023-06-26T07:13:08;24.64;67.31
71436;SHT31;59251;51.326;12.370;2023-06-26T07:15:35;24.40;68.24
71436;SHT31;59251;51.326;12.370;2023-06-26T07:18:01;24.40;68.25
71436;SHT31;59251;51.326;12.370;2023-06-26T07:20:28;24.36;68.24
71436;SHT31;59251;51.326;12.370;2023-06-26T07:22:56;24.37;68.18
71436;SHT31;59251;51.326;12.370;2023-06-26T07:25:23;24.36;68.11
71436;SHT31;59251;51.326;12.370;2023-06-26T07:27:49;24.77;67.36
71436;SHT31;59251;51.326;12.370;2023-06-26T07:30:16;24.88;66.79
71436;SHT31;59251;51.326;12.370;2023-06-26T07:32:45;24.80;67.01
71436;SHT31;59251;51.326;12.370;2023-06-26T07:35:11;24.73;67.24
71436;SHT31;59251;51.326;12.370;2023-06-26T07:37:38;24.84;67.36
71436;SHT31;59251;51.326;12.370;2023-06-26T07:40:08;24.71;67.36
71436;SHT31;59251;51.326;12.370;2023-06-26T07:42:35;24.85;67.57
71436;SHT31;59251;51.326;12.370;2023-06-26T07:45:03;25.05;66.82
71436;SHT31;59251;51.326;12.370;2023-06-26T07:47:35;25.16;66.72
71436;SHT31;59251;51.326;12.370;2023-06-26T07:50:01;25.25;66.45
71436;SHT31;59251;51.326;12.370;2023-06-26T07:52:28;25.38;66.22
71436;SHT31;59251;51.326;12.370;2023-06-26T07:54:55;25.42;66.27
71436;SHT31;59251;51.326;12.370;2023-06-26T07:57:23;25.35;66.40
71436;SHT31;59251;51.326;12.370;2023-06-26T07:59:50;25.58;65.98
71436;SHT31;59251;51.326;12.370;2023-06-26T08:02:17;25.46;66.47
71436;SHT31;59251;51.326;12.370;2023-06-26T08:04:44;25.77;66.16
71436;SHT31;59251;51.326;12.370;2023-06-26T08:07:11;25.73;66.35
71436;SHT31;59251;51.326;12.370;2023-06-26T08:09:39;25.98;66.12
71436;SHT31;59251;51.326;12.370;2023-06-26T08:12:06;25.96;65.83
71436;SHT31;59251;51.326;12.370;2023-06-26T08:14:34;26.14;65.67
71436;SHT31;59251;51.326;12.370;2023-06-26T08:17:01;26.47;65.03
71436;SHT31;59251;51.326;12.370;2023-06-26T08:19:28;26.66;64.49
71436;SHT31;59251;51.326;12.370;2023-06-26T08:21:54;26.69;63.76
71436;SHT31;59251;51.326;12.370;2023-06-26T08:24:21;26.89;63.35
71436;SHT31;59251;51.326;12.370;2023-06-26T08:26:48;26.85;64.11
71436;SHT31;59251;51.326;12.370;2023-06-26T08:29:15;26.72;64.29
71436;SHT31;59251;51.326;12.370;2023-06-26T08:31:43;26.99;63.78
71436;SHT31;59251;51.326;12.370;2023-06-26T08:34:09;27.10;63.22
71436;SHT31;59251;51.326;12.370;2023-06-26T08:36:36;27.22;63.32
71436;SHT31;59251;51.326;12.370;2023-06-26T08:39:04;27.27;62.68
71436;SHT31;59251;51.326;12.370;2023-06-26T08:41:31;27.38;62.44
71436;SHT31;59251;51.326;12.370;2023-06-26T08:43:58;27.34;60.59
71436;SHT31;59251;51.326;12.370;2023-06-26T08:46:24;27.35;61.18
71436;SHT31;59251;51.326;12.370;2023-06-26T08:48:55;27.50;61.72
71436;SHT31;59251;51.326;12.370;2023-06-26T08:51:24;27.59;61.56
71436;SHT31;59251;51.326;12.370;2023-06-26T08:53:56;27.69;61.32
71436;SHT31;59251;51.326;12.370;2023-06-26T08:56:25;27.68;61.10
71436;SHT31;59251;51.326;12.370;2023-06-26T08:58:54;27.85;61.04
71436;SHT31;59251;51.326;12.370;2023-06-26T09:01:21;28.03;59.41
71436;SHT31;59251;51.326;12.370;2023-06-26T09:03:49;28.02;58.80
71436;SHT31;59251;51.326;12.370;2023-06-26T09:06:18;28.08;59.52
71436;SHT31;59251;51.326;12.370;2023-06-26T09:08:45;28.14;58.62
71436;SHT31;59251;51.326;12.370;2023-06-26T09:11:12;28.14;58.35
71436;SHT31;59251;51.326;12.370;2023-06-26T09:13:39;28.30;58.55
71436;SHT31;59251;51.326;12.370;2023-06-26T09:16:07;28.32;58.35
71436;SHT31;59251;51.326;12.370;2023-06-26T09:18:34;28.33;58.49
71436;SHT31;59251;51.326;12.370;2023-06-26T09:21:06;28.40;58.12
71436;SHT31;59251;51.326;12.370;2023-06-26T09:23:35;28.68;58.78
71436;SHT31;59251;51.326;12.370;2023-06-26T09:26:02;28.69;57.90
71436;SHT31;59251;51.326;12.370;2023-06-26T09:28:30;28.77;57.49
71436;SHT31;59251;51.326;12.370;2023-06-26T09:31:01;28.72;57.36
71436;SHT31;59251;51.326;12.370;2023-06-26T09:33:33;28.81;56.65
71436;SHT31;59251;51.326;12.370;2023-06-26T09:36:00;28.85;56.27
71436;SHT31;59251;51.326;12.370;2023-06-26T09:38:26;28.94;56.07
71436;SHT31;59251;51.326;12.370;2023-06-26T09:40:55;29.08;56.11
71436;SHT31;59251;51.326;12.370;2023-06-26T09:43:23;29.30;55.55
71436;SHT31;59251;51.326;12.370;2023-06-26T09:45:50;28.74;55.85
71436;SHT31;59251;51.326;12.370;2023-06-26T09:48:16;29.02;55.11
71436;SHT31;59251;51.326;12.370;2023-06-26T09:50:43;29.37;53.67
71436;SHT31;59251;51.326;12.370;2023-06-26T09:53:11;29.43;52.70
71436;SHT31;59251;51.326;12.370;2023-06-26T09:55:39;29.62;53.01
71436;SHT31;59251;51.326;12.370;2023-06-26T09:58:11;29.60;52.81
71436;SHT31;59251;51.326;12.370;2023-06-26T10:00:40;29.64;53.22
71436;SHT31;59251;51.326;12.370;2023-06-26T10:03:07;29.78;53.53
71436;SHT31;59251;51.326;12.370;2023-06-26T10:05:33;29.98;52.92
71436;SHT31;59251;51.326;12.370;2023-06-26T10:08:01;30.00;51.84
71436;SHT31;59251;51.326;12.370;2023-06-26T10:10:29;30.17;51.21
71436;SHT31;59251;51.326;12.370;2023-06-26T10:12:59;30.17;51.09
71436;SHT31;59251;51.326;12.370;2023-06-26T10:15:29;29.96;51.05
71436;SHT31;59251;51.326;12.370;2023-06-26T10:17:57;29.97;50.33
71436;SHT31;59251;51.326;12.370;2023-06-26T10:20:24;30.02;51.03
71436;SHT31;59251;51.326;12.370;2023-06-26T10:22:51;30.22;51.39
71436;SHT31;59251;51.326;12.370;2023-06-26T10:25:21;30.33;50.21
71436;SHT31;59251;51.326;12.370;2023-06-26T10:27:53;30.48;49.39
71436;SHT31;59251;51.326;12.370;2023-06-26T10:30:25;30.48;49.72
71436;SHT31;59251;51.326;12.370;2023-06-26T10:32:54;30.52;50.20
71436;SHT31;59251;51.326;12.370;2023-06-26T10:35:24;30.59;50.10
71436;SHT31;59251;51.326;12.370;2023-06-26T10:37:51;30.73;50.36
71436;SHT31;59251;51.326;12.370;2023-06-26T10:40:22;30.79;50.29
71436;SHT31;59251;51.326;12.370;2023-06-26T10:42:51;31.06;49.79
71436;SHT31;59251;51.326;12.370;2023-06-26T10:45:33;31.21;49.22
71436;SHT31;59251;51.326;12.370;2023-06-26T10:48:02;31.25;48.47
71436;SHT31;59251;51.326;12.370;2023-06-26T10:50:30;30.96;48.09
71436;SHT31;59251;51.326;12.370;2023-06-26T10:53:15;31.15;48.00
71436;SHT31;59251;51.326;12.370;2023-06-26T10:55:48;31.23;47.63
71436;SHT31;59251;51.326;12.370;2023-06-26T10:58:32;31.18;47.64
71436;SHT31;59251;51.326;12.370;2023-06-26T11:01:17;30.83;48.09
71436;SHT31;59251;51.326;12.370;2023-06-26T11:03:48;31.17;47.82
71436;SHT31;59251;51.326;12.370;2023-06-26T11:06:18;31.28;47.20
71436;SHT31;59251;51.326;12.370;2023-06-26T11:08:45;31.27;47.38
71436;SHT31;59251;51.326;12.370;2023-06-26T11:11:13;31.23;47.84
71436;SHT31;59251;51.326;12.370;2023-06-26T11:13:40;31.44;47.80
71436;SHT31;59251;51.326;12.370;2023-06-26T11:16:08;31.69;47.56
71436;SHT31;59251;51.326;12.370;2023-06-26T11:18:34;31.81;46.89
71436;SHT31;59251;51.326;12.370;2023-06-26T11:21:07;31.76;47.13
71436;SHT31;59251;51.326;12.370;2023-06-26T11:23:35;31.97;46.20
71436;SHT31;59251;51.326;12.370;2023-06-26T11:26:13;32.14;45.57
71436;SHT31;59251;51.326;12.370;2023-06-26T11:28:46;31.63;46.97
71436;SHT31;59251;51.326;12.370;2023-06-26T11:31:24;31.94;46.40
71436;SHT31;59251;51.326;12.370;2023-06-26T11:33:51;32.21;46.12
71436;SHT31;59251;51.326;12.370;2023-06-26T11:36:19;32.30;45.12
71436;SHT31;59251;51.326;12.370;2023-06-26T11:38:45;33.22;43.91
71436;SHT31;59251;51.326;12.370;2023-06-26T11:41:16;33.30;43.77
71436;SHT31;59251;51.326;12.370;2023-06-26T11:43:43;33.59;43.56
71436;SHT31;59251;51.326;12.370;2023-06-26T11:46:10;34.27;43.23
71436;SHT31;59251;51.326;12.370;2023-06-26T11:48:37;33.53;43.52
71436;SHT31;59251;51.326;12.370;2023-06-26T11:51:04;33.52;42.90
71436;SHT31;59251;51.326;12.370;2023-06-26T11:53:39;32.47;44.78
71436;SHT31;59251;51.326;12.370;2023-06-26T11:56:08;32.41;44.71
71436;SHT31;59251;51.326;12.370;2023-06-26T11:58:35;33.80;42.93
71436;SHT31;59251;51.326;12.370;2023-06-26T12:01:02;34.00;42.70
71436;SHT31;59251;51.326;12.370;2023-06-26T12:03:31;34.15;42.12
71436;SHT31;59251;51.326;12.370;2023-06-26T12:05:58;34.79;42.09
71436;SHT31;59251;51.326;12.370;2023-06-26T12:08:26;34.56;42.03
71436;SHT31;59251;51.326;12.370;2023-06-26T12:10:55;34.90;41.64
71436;SHT31;59251;51.326;12.370;2023-06-26T12:13:22;36.06;39.43
71436;SHT31;59251;51.326;12.370;2023-06-26T12:15:49;36.43;39.02
71436;SHT31;59251;51.326;12.370;2023-06-26T12:18:16;35.95;38.93
71436;SHT31;59251;51.326;12.370;2023-06-26T12:20:42;36.10;38.92
71436;SHT31;59251;51.326;12.370;2023-06-26T12:23:12;35.24;40.01
71436;SHT31;59251;51.326;12.370;2023-06-26T12:25:39;35.62;40.07
71436;SHT31;59251;51.326;12.370;2023-06-26T12:28:16;35.13;40.79
71436;SHT31;59251;51.326;12.370;2023-06-26T12:30:46;35.07;41.55
71436;SHT31;59251;51.326;12.370;2023-06-26T12:33:14;35.89;39.20
71436;SHT31;59251;51.326;12.370;2023-06-26T12:35:41;36.12;38.70
71436;SHT31;59251;51.326;12.370;2023-06-26T12:38:08;36.05;38.56
71436;SHT31;59251;51.326;12.370;2023-06-26T12:40:44;35.95;39.29
71436;SHT31;59251;51.326;12.370;2023-06-26T12:43:11;36.50;38.14
71436;SHT31;59251;51.326;12.370;2023-06-26T12:45:40;35.74;39.54
71436;SHT31;59251;51.326;12.370;2023-06-26T12:48:08;34.32;40.97
71436;SHT31;59251;51.326;12.370;2023-06-26T12:50:38;33.42;42.06
71436;SHT31;59251;51.326;12.370;2023-06-26T12:53:05;33.50;42.38
71436;SHT31;59251;51.326;12.370;2023-06-26T12:55:31;33.32;42.61
71436;SHT31;59251;51.326;12.370;2023-06-26T12:57:59;33.26;42.85
71436;SHT31;59251;51.326;12.370;2023-06-26T13:00:25;34.25;41.55
71436;SHT31;59251;51.326;12.370;2023-06-26T13:02:53;35.48;39.25
71436;SHT31;59251;51.326;12.370;2023-06-26T13:05:20;36.80;37.68
71436;SHT31;59251;51.326;12.370;2023-06-26T13:07:47;35.66;38.65
71436;SHT31;59251;51.326;12.370;2023-06-26T13:10:13;35.74;39.03
71436;SHT31;59251;51.326;12.370;2023-06-26T13:12:40;35.29;40.62
71436;SHT31;59251;51.326;12.370;2023-06-26T13:15:08;35.41;39.87
71436;SHT31;59251;51.326;12.370;2023-06-26T13:17:35;35.27;40.13
71436;SHT31;59251;51.326;12.370;2023-06-26T13:20:03;34.35;40.95
71436;SHT31;59251;51.326;12.370;2023-06-26T13:22:31;34.51;40.51
71436;SHT31;59251;51.326;12.370;2023-06-26T13:24:58;35.50;39.13
71436;SHT31;59251;51.326;12.370;2023-06-26T13:27:24;36.03;37.69
71436;SHT31;59251;51.326;12.370;2023-06-26T13:29:51;36.63;37.35
71436;SHT31;59251;51.326;12.370;2023-06-26T13:32:18;37.35;36.62
71436;SHT31;59251;51.326;12.370;2023-06-26T13:34:45;37.47;36.10
71436;SHT31;59251;51.326;12.370;2023-06-26T13:37:13;37.01;36.98
71436;SHT31;59251;51.326;12.370;2023-06-26T13:39:40;36.90;37.44
71436;SHT31;59251;51.326;12.370;2023-06-26T13:42:07;37.22;36.45
71436;SHT31;59251;51.326;12.370;2023-06-26T13:44:34;37.10;36.07
71436;SHT31;59251;51.326;12.370;2023-06-26T13:47:00;37.40;35.81
71436;SHT31;59251;51.326;12.370;2023-06-26T13:49:27;35.85;38.03
71436;SHT31;59251;51.326;12.370;2023-06-26T13:51:54;35.95;37.87
71436;SHT31;59251;51.326;12.370;2023-06-26T13:54:22;34.62;39.33
71436;SHT31;59251;51.326;12.370;2023-06-26T13:56:48;33.89;39.95
71436;SHT31;59251;51.326;12.370;2023-06-26T13:59:15;33.41;40.29
71436;SHT31;59251;51.326;12.370;2023-06-26T14:01:43;32.95;41.48
71436;SHT31;59251;51.326;12.370;2023-06-26T14:04:10;32.41;41.91
71436;SHT31;59251;51.326;12.370;2023-06-26T14:06:36;32.00;42.91
71436;SHT31;59251;51.326;12.370;2023-06-26T14:09:03;29.96;56.43
71436;SHT31;59251;51.326;12.370;2023-06-26T14:11:31;28.37;62.94
71436;SHT31;59251;51.326;12.370;2023-06-26T14:13:59;27.24;67.64
71436;SHT31;59251;51.326;12.370;2023-06-26T14:16:26;26.99;68.85
71436;SHT31;59251;51.326;12.370;2023-06-26T14:18:54;27.11;69.08
71436;SHT31;59251;51.326;12.370;2023-06-26T14:21:20;26.86;70.33
71436;SHT31;59251;51.326;12.370;2023-06-26T14:23:47;26.68;73.80
71436;SHT31;59251;51.326;12.370;2023-06-26T14:26:14;26.93;72.23
71436;SHT31;59251;51.326;12.370;2023-06-26T14:28:42;27.59;70.46
71436;SHT31;59251;51.326;12.370;2023-06-26T14:31:10;26.75;72.87
71436;SHT31;59251;51.326;12.370;2023-06-26T14:33:37;26.86;72.79
71436;SHT31;59251;51.326;12.370;2023-06-26T14:36:03;27.52;70.91
71436;SHT31;59251;51.326;12.370;2023-06-26T14:38:30;27.14;71.87
71436;SHT31;59251;51.326;12.370;2023-06-26T14:40:57;28.33;68.35
71436;SHT31;59251;51.326;12.370;2023-06-26T14:43:24;28.71;66.91
71436;SHT31;59251;51.326;12.370;2023-06-26T14:45:52;29.54;64.45
71436;SHT31;59251;51.326;12.370;2023-06-26T14:48:18;29.64;65.28
71436;SHT31;59251;51.326;12.370;2023-06-26T14:50:46;29.91;64.29
71436;SHT31;59251;51.326;12.370;2023-06-26T14:53:12;29.98;63.59
71436;SHT31;59251;51.326;12.370;2023-06-26T14:55:39;29.70;64.14
71436;SHT31;59251;51.326;12.370;2023-06-26T14:58:06;30.35;62.20
71436;SHT31;59251;51.326;12.370;2023-06-26T15:00:32;29.59;63.30
71436;SHT31;59251;51.326;12.370;2023-06-26T15:03:00;30.07;62.44
71436;SHT31;59251;51.326;12.370;2023-06-26T15:05:27;28.46;66.48
71436;SHT31;59251;51.326;12.370;2023-06-26T15:07:54;29.45;64.56
71436;SHT31;59251;51.326;12.370;2023-06-26T15:10:20;29.27;64.52
71436;SHT31;59251;51.326;12.370;2023-06-26T15:12:48;29.47;63.53
71436;SHT31;59251;51.326;12.370;2023-06-26T15:15:14;29.49;63.72
71436;SHT31;59251;51.326;12.370;2023-06-26T15:17:42;29.57;64.03
71436;SHT31;59251;51.326;12.370;2023-06-26T15:20:11;28.54;64.73